sensor_id;sensor_type;location;lat;lon;timestamp;P1;durP1;ratioP1;P2;durP2;ratioP2
13927;SDS011;7036;50.834;4.718;2023-06-24T05:49:45;14.50;;;4.60;;
13927;SDS011;7036;50.834;4.718;2023-06-24T05:52:12;10.83;;;3.13;;
13927;SDS011;7036;50.834;4.718;2023-06-24T05:54:39;15.73;;;4.00;;
13927;SDS011;7036;50.834;4.718;2023-06-24T05:57:06;27.17;;;5.27;;
13927;SDS011;7036;50.834;4.718;2023-06-24T05:59:33;19.03;;;3.83;;
13927;SDS011;7036;50.834;4.718;2023-06-24T06:01:59;9.73;;;3.37;;
13927;SDS011;7036;50.834;4.718;2023-06-24T06:04:27;14.17;;;3.60;;
13927;SDS011;7036;50.834;4.718;2023-06-24T06:06:54;13.70;;;4.10;;
13927;SDS011;7036;50.834;4.718;2023-06-24T06:09:21;10.93;;;3.30;;
13927;SDS011;7036;50.834;4.718;2023-06-24T06:11:48;8.60;;;3.00;;
13927;SDS011;7036;50.834;4.718;2023-06-24T06:14:14;9.10;;;3.23;;
13927;SDS011;7036;50.834;4.718;2023-06-24T06:16:41;13.67;;;3.10;;
13927;SDS011;7036;50.834;4.718;2023-06-24T06:19:08;8.27;;;4.17;;
13927;SDS011;7036;50.834;4.718;2023-06-24T06:21:36;11.30;;;3.43;;
13927;SDS011;7036;50.834;4.718;2023-06-24T06:24:04;14.47;;;3.70;;
13927;SDS011;7036;50.834;4.718;2023-06-24T06:26:31;4.67;;;2.83;;
13927;SDS011;7036;50.834;4.718;2023-06-24T06:28:57;6.20;;;2.97;;
13927;SDS011;7036;50.834;4.718;2023-06-24T06:31:24;5.40;;;2.63;;
13927;SDS011;7036;50.834;4.718;2023-06-24T06:33:51;4.80;;;2.93;;
13927;SDS011;7036;50.834;4.718;2023-06-24T06:36:18;5.97;;;3.20;;
13927;SDS011;7036;50.834;4.718;2023-06-24T06:38:45;4.33;;;3.03;;
13927;SDS011;7036;50.834;4.718;2023-06-24T06:41:12;5.13;;;2.70;;
13927;SDS011;7036;50.834;4.718;2023-06-24T06:43:39;16.57;;;3.40;;
13927;SDS011;7036;50.834;4.718;2023-06-24T06:46:06;9.57;;;3.33;;
13927;SDS011;7036;50.834;4.718;2023-06-24T06:48:33;10.73;;;3.67;;
13927;SDS011;7036;50.834;4.718;2023-06-24T06:51:00;13.47;;;3.67;;
13927;SDS011;7036;50.834;4.718;2023-06-24T06:53:27;10.77;;;4.10;;
13927;SDS011;7036;50.834;4.718;2023-06-24T06:55:54;19.07;;;3.80;;
13927;SDS011;7036;50.834;4.718;2023-06-24T06:58:21;12.03;;;3.47;;
13927;SDS011;7036;50.834;4.718;2023-06-24T07:00:48;7.27;;;3.27;;
13927;SDS011;7036;50.834;4.718;2023-06-24T07:03:15;7.00;;;3.17;;
13927;SDS011;7036;50.834;4.718;2023-06-24T07:05:41;7.70;;;3.30;;
13927;SDS011;7036;50.834;4.718;2023-06-24T07:08:08;11.13;;;3.20;;
13927;SDS011;7036;50.834;4.718;2023-06-24T07:10:35;11.00;;;3.13;;
13927;SDS011;7036;50.834;4.718;2023-06-24T07:13:02;9.37;;;3.63;;
13927;SDS011;7036;50.834;4.718;2023-06-24T07:15:29;6.77;;;3.80;;
13927;SDS011;7036;50.834;4.718;2023-06-24T07:17:56;6.50;;;2.73;;
13927;SDS011;7036;50.834;4.718;2023-06-24T07:20:24;10.77;;;3.27;;
13927;SDS011;7036;50.834;4.718;2023-06-24T07:22:50;10.70;;;3.63;;
13927;SDS011;7036;50.834;4.718;2023-06-24T07:25:17;6.00;;;2.90;;
13927;SDS011;7036;50.834;4.718;2023-06-24T07:27:44;9.20;;;3.50;;
13927;SDS011;7036;50.834;4.718;2023-06-24T07:30:12;10.80;;;3.63;;
13927;SDS011;7036;50.834;4.718;2023-06-24T07:32:39;14.63;;;3.77;;
13927;SDS011;7036;50.834;4.718;2023-06-24T07:35:06;10.37;;;3.13;;
13927;SDS011;7036;50.834;4.718;2023-06-24T07:37:34;9.53;;;3.80;;
13927;SDS011;7036;50.834;4.718;2023-06-24T07:40:00;11.03;;;3.53;;
13927;SDS011;7036;50.834;4.718;2023-06-24T07:42:27;11.17;;;3.50;;
13927;SDS011;7036;50.834;4.718;2023-06-24T07:44:54;10.37;;;3.80;;
13927;SDS011;7036;50.834;4.718;2023-06-24T07:47:21;10.37;;;3.83;;
13927;SDS011;7036;50.834;4.718;2023-06-24T07:49:51;11.33;;;3.57;;
13927;SDS011;7036;50.834;4.718;2023-06-24T07:52:17;9.13;;;4.17;;
13927;SDS011;7036;50.834;4.718;2023-06-24T07:54:44;14.47;;;4.20;;
13927;SDS011;7036;50.834;4.718;2023-06-24T07:57:11;10.47;;;3.73;;
13927;SDS011;7036;50.834;4.718;2023-06-24T07:59:38;13.63;;;3.77;;
13927;SDS011;7036;50.834;4.718;2023-06-24T08:02:05;10.40;;;3.30;;
13927;SDS011;7036;50.834;4.718;2023-06-24T08:04:32;23.37;;;3.90;;
13927;SDS011;7036;50.834;4.718;2023-06-24T08:06:59;8.43;;;3.47;;
13927;SDS011;7036;50.834;4.718;2023-06-24T08:09:26;9.80;;;2.93;;
13927;SDS011;7036;50.834;4.718;2023-06-24T08:11:53;5.80;;;2.77;;
13927;SDS011;7036;50.834;4.718;2023-06-24T08:14:20;15.30;;;3.67;;
13927;SDS011;7036;50.834;4.718;2023-06-24T08:16:47;9.30;;;3.93;;
13927;SDS011;7036;50.834;4.718;2023-06-24T08:19:14;13.63;;;3.30;;
13927;SDS011;7036;50.834;4.718;2023-06-24T08:21:41;9.27;;;3.33;;
13927;SDS011;7036;50.834;4.718;2023-06-24T08:24:08;9.23;;;3.10;;
13927;SDS011;7036;50.834;4.718;2023-06-24T08:26:35;8.97;;;3.43;;
13927;SDS011;7036;50.834;4.718;2023-06-24T08:29:02;6.47;;;2.80;;
13927;SDS011;7036;50.834;4.718;2023-06-24T08:31:29;14.00;;;4.03;;
13927;SDS011;7036;50.834;4.718;2023-06-24T08:33:58;7.90;;;3.60;;
13927;SDS011;7036;50.834;4.718;2023-06-24T08:36:22;9.33;;;3.33;;
13927;SDS011;7036;50.834;4.718;2023-06-24T08:38:49;17.00;;;4.10;;
13927;SDS011;7036;50.834;4.718;2023-06-24T08:41:16;14.87;;;3.90;;
13927;SDS011;7036;50.834;4.718;2023-06-24T08:43:43;8.57;;;3.17;;
13927;SDS011;7036;50.834;4.718;2023-06-24T08:46:11;8.40;;;3.33;;
13927;SDS011;7036;50.834;4.718;2023-06-24T08:48:38;11.57;;;3.00;;
13927;SDS011;7036;50.834;4.718;2023-06-24T08:51:04;6.70;;;2.80;;
13927;SDS011;7036;50.834;4.718;2023-06-24T08:53:31;5.17;;;2.70;;
13927;SDS011;7036;50.834;4.718;2023-06-24T08:55:58;10.20;;;3.10;;
13927;SDS011;7036;50.834;4.718;2023-06-24T08:58:25;6.93;;;3.10;;
13927;SDS011;7036;50.834;4.718;2023-06-24T09:00:52;6.27;;;3.40;;
13927;SDS011;7036;50.834;4.718;2023-06-24T09:03:19;5.67;;;2.63;;
13927;SDS011;7036;50.834;4.718;2023-06-24T09:05:46;5.50;;;3.03;;
13927;SDS011;7036;50.834;4.718;2023-06-24T09:08:13;5.70;;;3.70;;
13927;SDS011;7036;50.834;4.718;2023-06-24T09:10:39;8.80;;;3.60;;
13927;SDS011;7036;50.834;4.718;2023-06-24T09:13:07;5.57;;;3.13;;
13927;SDS011;7036;50.834;4.718;2023-06-24T09:15:37;5.50;;;2.90;;
13927;SDS011;7036;50.834;4.718;2023-06-24T09:18:03;6.73;;;2.83;;
13927;SDS011;7036;50.834;4.718;2023-06-24T09:20:30;3.63;;;2.63;;
13927;SDS011;7036;50.834;4.718;2023-06-24T09:22:58;4.60;;;2.73;;
13927;SDS011;7036;50.834;4.718;2023-06-24T09:25:24;5.70;;;2.83;;
13927;SDS011;7036;50.834;4.718;2023-06-24T09:27:51;6.50;;;2.30;;
13927;SDS011;7036;50.834;4.718;2023-06-24T09:30:24;5.13;;;2.47;;
13927;SDS011;7036;50.834;4.718;2023-06-24T09:32:48;5.60;;;2.63;;
13927;SDS011;7036;50.834;4.718;2023-06-24T09:35:19;4.37;;;2.40;;
13927;SDS011;7036;50.834;4.718;2023-06-24T09:37:55;9.37;;;2.40;;
13927;SDS011;7036;50.834;4.718;2023-06-24T09:40:21;4.53;;;2.50;;
13927;SDS011;7036;50.834;4.718;2023-06-24T09:42:51;5.73;;;2.10;;
13927;SDS011;7036;50.834;4.718;2023-06-24T09:45:22;5.77;;;2.23;;
13927;SDS011;7036;50.834;4.718;2023-06-24T09:47:55;5.83;;;2.40;;
13927;SDS011;7036;50.834;4.718;2023-06-24T09:50:21;6.20;;;2.40;;
13927;SDS011;7036;50.834;4.718;2023-06-24T09:52:49;7.53;;;2.70;;
13927;SDS011;7036;50.834;4.718;2023-06-24T09:55:16;3.93;;;2.63;;
13927;SDS011;7036;50.834;4.718;2023-06-24T09:57:44;5.70;;;2.90;;
13927;SDS011;7036;50.834;4.718;2023-06-24T10:00:09;4.47;;;2.50;;
13927;SDS011;7036;50.834;4.718;2023-06-24T10:02:38;5.77;;;2.67;;
13927;SDS011;7036;50.834;4.718;2023-06-24T10:05:05;3.87;;;2.60;;
13927;SDS011;7036;50.834;4.718;2023-06-24T10:07:32;3.77;;;2.40;;
13927;SDS011;7036;50.834;4.718;2023-06-24T10:10:00;5.97;;;2.80;;
13927;SDS011;7036;50.834;4.718;2023-06-24T10:12:26;7.13;;;2.50;;
13927;SDS011;7036;50.834;4.718;2023-06-24T10:14:53;4.47;;;3.00;;
13927;SDS011;7036;50.834;4.718;2023-06-24T10:17:19;4.87;;;2.50;;
13927;SDS011;7036;50.834;4.718;2023-06-24T10:19:46;7.47;;;2.60;;
13927;SDS011;7036;50.834;4.718;2023-06-24T10:22:13;4.33;;;2.30;;
13927;SDS011;7036;50.834;4.718;2023-06-24T10:24:40;5.00;;;2.77;;
13927;SDS011;7036;50.834;4.718;2023-06-24T10:27:17;6.13;;;2.63;;
13927;SDS011;7036;50.834;4.718;2023-06-24T10:29:46;4.80;;;2.47;;
13927;SDS011;7036;50.834;4.718;2023-06-24T10:32:12;5.03;;;2.73;;
13927;SDS011;7036;50.834;4.718;2023-06-24T10:34:43;8.53;;;2.60;;
13927;SDS011;7036;50.834;4.718;2023-06-24T10:37:13;3.53;;;2.20;;
13927;SDS011;7036;50.834;4.718;2023-06-24T10:39:55;5.73;;;2.30;;
13927;SDS011;7036;50.834;4.718;2023-06-24T10:42:30;8.77;;;2.57;;
13927;SDS011;7036;50.834;4.718;2023-06-24T10:44:58;6.40;;;2.70;;
13927;SDS011;7036;50.834;4.718;2023-06-24T10:47:27;5.67;;;2.33;;
13927;SDS011;7036;50.834;4.718;2023-06-24T10:49:53;2.77;;;2.33;;
13927;SDS011;7036;50.834;4.718;2023-06-24T10:52:20;5.63;;;2.70;;
13927;SDS011;7036;50.834;4.718;2023-06-24T10:54:50;9.20;;;2.97;;
13927;SDS011;7036;50.834;4.718;2023-06-24T10:57:20;3.33;;;2.30;;
13927;SDS011;7036;50.834;4.718;2023-06-24T10:59:46;4.70;;;2.60;;
13927;SDS011;7036;50.834;4.718;2023-06-24T11:02:13;7.97;;;2.17;;
13927;SDS011;7036;50.834;4.718;2023-06-24T11:04:50;13.07;;;2.93;;
13927;SDS011;7036;50.834;4.718;2023-06-24T11:07:19;12.67;;;3.77;;
13927;SDS011;7036;50.834;4.718;2023-06-24T11:09:49;13.17;;;3.93;;
13927;SDS011;7036;50.834;4.718;2023-06-24T11:12:15;20.87;;;3.77;;
13927;SDS011;7036;50.834;4.718;2023-06-24T11:14:42;18.63;;;3.83;;
13927;SDS011;7036;50.834;4.718;2023-06-24T11:17:09;17.73;;;3.80;;
13927;SDS011;7036;50.834;4.718;2023-06-24T11:19:36;21.33;;;3.40;;
13927;SDS011;7036;50.834;4.718;2023-06-24T11:22:03;13.00;;;3.37;;
13927;SDS011;7036;50.834;4.718;2023-06-24T11:24:30;14.90;;;3.27;;
13927;SDS011;7036;50.834;4.718;2023-06-24T11:26:57;10.13;;;3.67;;
13927;SDS011;7036;50.834;4.718;2023-06-24T11:29:24;11.33;;;3.10;;
13927;SDS011;7036;50.834;4.718;2023-06-24T11:31:51;9.27;;;2.90;;
13927;SDS011;7036;50.834;4.718;2023-06-24T11:34:18;7.33;;;2.97;;
13927;SDS011;7036;50.834;4.718;2023-06-24T11:36:45;11.53;;;3.67;;
13927;SDS011;7036;50.834;4.718;2023-06-24T11:39:21;13.20;;;3.10;;
13927;SDS011;7036;50.834;4.718;2023-06-24T11:41:47;12.17;;;3.47;;
13927;SDS011;7036;50.834;4.718;2023-06-24T11:44:14;8.53;;;2.93;;
13927;SDS011;7036;50.834;4.718;2023-06-24T11:46:41;14.57;;;3.37;;
13927;SDS011;7036;50.834;4.718;2023-06-24T11:49:08;13.20;;;3.70;;
13927;SDS011;7036;50.834;4.718;2023-06-24T11:51:35;25.67;;;5.10;;
13927;SDS011;7036;50.834;4.718;2023-06-24T11:54:03;23.43;;;4.50;;
13927;SDS011;7036;50.834;4.718;2023-06-24T11:56:35;17.97;;;4.53;;
13927;SDS011;7036;50.834;4.718;2023-06-24T11:59:18;31.97;;;4.80;;
13927;SDS011;7036;50.834;4.718;2023-06-24T12:01:44;12.07;;;3.83;;
13927;SDS011;7036;50.834;4.718;2023-06-24T12:04:14;17.33;;;3.93;;
13927;SDS011;7036;50.834;4.718;2023-06-24T12:06:41;20.90;;;4.73;;
13927;SDS011;7036;50.834;4.718;2023-06-24T12:09:11;19.90;;;4.20;;
13927;SDS011;7036;50.834;4.718;2023-06-24T12:11:38;21.17;;;4.00;;
13927;SDS011;7036;50.834;4.718;2023-06-24T12:14:05;20.93;;;4.53;;
13927;SDS011;7036;50.834;4.718;2023-06-24T12:16:31;36.37;;;5.13;;
13927;SDS011;7036;50.834;4.718;2023-06-24T12:18:58;23.17;;;4.20;;
13927;SDS011;7036;50.834;4.718;2023-06-24T12:21:25;32.07;;;4.77;;
13927;SDS011;7036;50.834;4.718;2023-06-24T12:23:52;41.33;;;6.53;;
13927;SDS011;7036;50.834;4.718;2023-06-24T12:26:19;34.20;;;7.50;;
13927;SDS011;7036;50.834;4.718;2023-06-24T12:28:46;28.13;;;6.17;;
13927;SDS011;7036;50.834;4.718;2023-06-24T12:31:13;33.10;;;5.97;;
13927;SDS011;7036;50.834;4.718;2023-06-24T12:33:40;33.67;;;4.70;;
13927;SDS011;7036;50.834;4.718;2023-06-24T12:36:07;30.77;;;5.13;;
13927;SDS011;7036;50.834;4.718;2023-06-24T12:38:34;23.17;;;5.13;;
13927;SDS011;7036;50.834;4.718;2023-06-24T12:41:01;24.53;;;5.03;;
13927;SDS011;7036;50.834;4.718;2023-06-24T12:43:28;20.37;;;4.83;;
13927;SDS011;7036;50.834;4.718;2023-06-24T12:45:55;21.60;;;4.33;;
13927;SDS011;7036;50.834;4.718;2023-06-24T12:48:22;16.40;;;3.37;;
13927;SDS011;7036;50.834;4.718;2023-06-24T12:50:49;16.63;;;3.77;;
13927;SDS011;7036;50.834;4.718;2023-06-24T12:53:16;22.30;;;4.43;;
13927;SDS011;7036;50.834;4.718;2023-06-24T12:55:42;24.17;;;4.60;;
13927;SDS011;7036;50.834;4.718;2023-06-24T12:58:09;32.27;;;5.90;;
13927;SDS011;7036;50.834;4.718;2023-06-24T13:00:36;25.90;;;6.37;;
13927;SDS011;7036;50.834;4.718;2023-06-24T13:03:03;33.87;;;5.70;;
13927;SDS011;7036;50.834;4.718;2023-06-24T13:05:30;29.87;;;5.87;;
13927;SDS011;7036;50.834;4.718;2023-06-24T13:07:57;30.10;;;5.40;;
13927;SDS011;7036;50.834;4.718;2023-06-24T13:10:24;27.00;;;5.60;;
13927;SDS011;7036;50.834;4.718;2023-06-24T13:12:51;26.67;;;5.77;;
13927;SDS011;7036;50.834;4.718;2023-06-24T13:15:18;25.57;;;5.00;;
13927;SDS011;7036;50.834;4.718;2023-06-24T13:17:45;20.23;;;4.80;;
13927;SDS011;7036;50.834;4.718;2023-06-24T13:20:12;29.57;;;4.87;;
13927;SDS011;7036;50.834;4.718;2023-06-24T13:22:39;22.03;;;4.23;;
13927;SDS011;7036;50.834;4.718;2023-06-24T13:25:06;16.70;;;3.83;;
13927;SDS011;7036;50.834;4.718;2023-06-24T13:27:34;19.93;;;3.67;;
13927;SDS011;7036;50.834;4.718;2023-06-24T13:30:00;12.07;;;4.17;;
13927;SDS011;7036;50.834;4.718;2023-06-24T13:32:27;13.73;;;3.37;;
13927;SDS011;7036;50.834;4.718;2023-06-24T13:34:54;10.37;;;3.80;;
13927;SDS011;7036;50.834;4.718;2023-06-24T13:37:21;13.57;;;3.70;;
13927;SDS011;7036;50.834;4.718;2023-06-24T13:39:48;8.93;;;3.53;;
13927;SDS011;7036;50.834;4.718;2023-06-24T13:42:15;13.60;;;3.20;;
13927;SDS011;7036;50.834;4.718;2023-06-24T13:44:42;10.83;;;3.00;;
13927;SDS011;7036;50.834;4.718;2023-06-24T13:47:09;6.87;;;2.97;;
13927;SDS011;7036;50.834;4.718;2023-06-24T13:49:37;7.93;;;3.10;;
13927;SDS011;7036;50.834;4.718;2023-06-24T13:52:03;15.97;;;3.47;;
13927;SDS011;7036;50.834;4.718;2023-06-24T13:54:30;8.27;;;2.87;;
13927;SDS011;7036;50.834;4.718;2023-06-24T13:56:57;8.13;;;2.83;;
13927;SDS011;7036;50.834;4.718;2023-06-24T13:59:24;11.77;;;3.10;;
13927;SDS011;7036;50.834;4.718;2023-06-24T14:01:52;8.57;;;2.50;;
13927;SDS011;7036;50.834;4.718;2023-06-24T14:04:20;7.13;;;2.60;;
13927;SDS011;7036;50.834;4.718;2023-06-24T14:06:47;7.33;;;2.27;;
13927;SDS011;7036;50.834;4.718;2023-06-24T14:09:14;4.57;;;2.70;;
13927;SDS011;7036;50.834;4.718;2023-06-24T14:11:41;4.63;;;2.63;;
13927;SDS011;7036;50.834;4.718;2023-06-24T14:14:08;5.30;;;2.27;;
13927;SDS011;7036;50.834;4.718;2023-06-24T14:16:35;3.80;;;2.20;;
13927;SDS011;7036;50.834;4.718;2023-06-24T14:19:02;9.77;;;2.93;;
13927;SDS011;7036;50.834;4.718;2023-06-24T14:21:29;7.07;;;2.37;;
13927;SDS011;7036;50.834;4.718;2023-06-24T14:23:55;10.73;;;2.87;;
13927;SDS011;7036;50.834;4.718;2023-06-24T14:26:22;4.50;;;2.57;;
13927;SDS011;7036;50.834;4.718;2023-06-24T14:28:49;2.57;;;2.20;;
13927;SDS011;7036;50.834;4.718;2023-06-24T14:31:16;3.43;;;2.43;;
13927;SDS011;7036;50.834;4.718;2023-06-24T14:33:43;3.93;;;2.43;;
13927;SDS011;7036;50.834;4.718;2023-06-24T14:36:10;4.30;;;2.10;;
13927;SDS011;7036;50.834;4.718;2023-06-24T14:38:37;2.03;;;1.93;;
13927;SDS011;7036;50.834;4.718;2023-06-24T14:41:04;4.97;;;2.23;;
13927;SDS011;7036;50.834;4.718;2023-06-24T14:43:31;2.70;;;1.87;;
13927;SDS011;7036;50.834;4.718;2023-06-24T14:45:58;8.50;;;2.17;;
13927;SDS011;7036;50.834;4.718;2023-06-24T14:48:25;2.43;;;2.17;;
13927;SDS011;7036;50.834;4.718;2023-06-24T14:50:52;2.97;;;2.10;;
13927;SDS011;7036;50.834;4.718;2023-06-24T14:53:18;3.30;;;2.00;;
13927;SDS011;7036;50.834;4.718;2023-06-24T14:55:45;2.43;;;1.87;;
13927;SDS011;7036;50.834;4.718;2023-06-24T14:58:12;3.70;;;2.20;;
13927;SDS011;7036;50.834;4.718;2023-06-24T15:00:39;2.53;;;1.70;;
13927;SDS011;7036;50.834;4.718;2023-06-24T15:03:06;5.07;;;1.70;;
13927;SDS011;7036;50.834;4.718;2023-06-24T15:05:33;2.30;;;1.77;;
13927;SDS011;7036;50.834;4.718;2023-06-24T15:08:00;3.23;;;1.90;;
13927;SDS011;7036;50.834;4.718;2023-06-24T15:10:27;4.83;;;2.33;;
13927;SDS011;7036;50.834;4.718;2023-06-24T15:12:54;3.83;;;2.03;;
13927;SDS011;7036;50.834;4.718;2023-06-24T15:15:20;2.07;;;1.87;;
13927;SDS011;7036;50.834;4.718;2023-06-24T15:17:47;2.50;;;2.10;;
13927;SDS011;7036;50.834;4.718;2023-06-24T15:20:14;2.00;;;1.80;;
13927;SDS011;7036;50.834;4.718;2023-06-24T15:22:42;3.00;;;1.80;;
13927;SDS011;7036;50.834;4.718;2023-06-24T15:25:09;3.97;;;1.70;;
13927;SDS011;7036;50.834;4.718;2023-06-24T15:27:36;4.07;;;2.33;;
13927;SDS011;7036;50.834;4.718;2023-06-24T15:30:03;4.87;;;1.80;;
13927;SDS011;7036;50.834;4.718;2023-06-24T15:32:30;2.17;;;1.97;;
13927;SDS011;7036;50.834;4.718;2023-06-24T15:34:57;2.17;;;1.67;;
13927;SDS011;7036;50.834;4.718;2023-06-24T15:37:24;2.27;;;1.60;;
13927;SDS011;7036;50.834;4.718;2023-06-24T15:39:51;3.60;;;2.20;;
13927;SDS011;7036;50.834;4.718;2023-06-24T15:42:18;2.60;;;1.90;;
13927;SDS011;7036;50.834;4.718;2023-06-24T15:44:44;6.97;;;2.47;;
13927;SDS011;7036;50.834;4.718;2023-06-24T15:47:11;3.70;;;2.00;;
13927;SDS011;7036;50.834;4.718;2023-06-24T15:49:38;2.20;;;1.77;;
13927;SDS011;7036;50.834;4.718;2023-06-24T15:52:05;2.23;;;1.90;;
13927;SDS011;7036;50.834;4.718;2023-06-24T15:54:32;2.70;;;2.20;;
13927;SDS011;7036;50.834;4.718;2023-06-24T15:56:59;2.50;;;1.93;;
13927;SDS011;7036;50.834;4.718;2023-06-24T15:59:26;3.03;;;1.77;;
13927;SDS011;7036;50.834;4.718;2023-06-24T16:01:53;2.10;;;1.60;;
13927;SDS011;7036;50.834;4.718;2023-06-24T16:04:20;2.50;;;1.60;;
13927;SDS011;7036;50.834;4.718;2023-06-24T16:06:48;2.40;;;2.03;;
13927;SDS011;7036;50.834;4.718;2023-06-24T16:09:15;2.10;;;1.90;;
13927;SDS011;7036;50.834;4.718;2023-06-24T16:11:42;2.20;;;2.00;;
13927;SDS011;7036;50.834;4.718;2023-06-24T16:14:09;5.13;;;2.20;;
13927;SDS011;7036;50.834;4.718;2023-06-24T16:16:36;3.80;;;2.23;;
13927;SDS011;7036;50.834;4.718;2023-06-24T16:19:03;3.10;;;1.80;;
13927;SDS011;7036;50.834;4.718;2023-06-24T16:21:30;4.23;;;1.80;;
13927;SDS011;7036;50.834;4.718;2023-06-24T16:23:57;2.40;;;2.10;;
13927;SDS011;7036;50.834;4.718;2023-06-24T16:26:24;2.40;;;2.07;;
13927;SDS011;7036;50.834;4.718;2023-06-24T16:28:51;3.57;;;1.90;;
13927;SDS011;7036;50.834;4.718;2023-06-24T16:31:18;2.23;;;1.93;;
13927;SDS011;7036;50.834;4.718;2023-06-24T16:33:46;7.13;;;2.50;;
13927;SDS011;7036;50.834;4.718;2023-06-24T16:36:12;2.27;;;2.07;;
13927;SDS011;7036;50.834;4.718;2023-06-24T16:38:39;2.93;;;2.13;;
13927;SDS011;7036;50.834;4.718;2023-06-24T16:41:06;4.80;;;2.10;;
13927;SDS011;7036;50.834;4.718;2023-06-24T16:43:33;2.03;;;1.77;;
13927;SDS011;7036;50.834;4.718;2023-06-24T16:46:01;3.20;;;2.30;;
13927;SDS011;7036;50.834;4.718;2023-06-24T16:48:27;3.07;;;2.40;;
13927;SDS011;7036;50.834;4.718;2023-06-24T16:50:54;3.50;;;2.33;;
13927;SDS011;7036;50.834;4.718;2023-06-24T16:53:21;3.20;;;2.23;;
13927;SDS011;7036;50.834;4.718;2023-06-24T16:55:48;2.47;;;2.07;;
13927;SDS011;7036;50.834;4.718;2023-06-24T16:58:15;4.87;;;2.70;;
13927;SDS011;7036;50.834;4.718;2023-06-24T17:00:42;7.00;;;2.73;;
13927;SDS011;7036;50.834;4.718;2023-06-24T17:03:09;7.30;;;3.37;;
13927;SDS011;7036;50.834;4.718;2023-06-24T17:05:36;9.00;;;3.03;;
13927;SDS011;7036;50.834;4.718;2023-06-24T17:08:04;3.20;;;2.90;;
13927;SDS011;7036;50.834;4.718;2023-06-24T17:10:33;5.00;;;2.57;;
13927;SDS011;7036;50.834;4.718;2023-06-24T17:12:59;4.00;;;2.43;;
13927;SDS011;7036;50.834;4.718;2023-06-24T17:15:26;4.87;;;2.73;;
13927;SDS011;7036;50.834;4.718;2023-06-24T17:17:53;3.40;;;2.33;;
13927;SDS011;7036;50.834;4.718;2023-06-24T17:20:20;4.37;;;2.57;;
13927;SDS011;7036;50.834;4.718;2023-06-24T17:22:47;2.97;;;2.33;;
13927;SDS011;7036;50.834;4.718;2023-06-24T17:25:14;3.40;;;2.30;;
13927;SDS011;7036;50.834;4.718;2023-06-24T17:27:41;2.53;;;2.17;;
13927;SDS011;7036;50.834;4.718;2023-06-24T17:30:08;3.37;;;2.30;;
13927;SDS011;7036;50.834;4.718;2023-06-24T17:32:35;4.47;;;3.07;;
13927;SDS011;7036;50.834;4.718;2023-06-24T17:35:02;2.37;;;1.93;;
13927;SDS011;7036;50.834;4.718;2023-06-24T17:37:29;6.57;;;2.37;;
13927;SDS011;7036;50.834;4.718;2023-06-24T17:39:56;6.50;;;2.73;;
13927;SDS011;7036;50.834;4.718;2023-06-24T17:42:23;3.57;;;2.37;;
13927;SDS011;7036;50.834;4.718;2023-06-24T17:44:51;4.37;;;2.37;;
13927;SDS011;7036;50.834;4.718;2023-06-24T17:47:17;4.07;;;2.40;;
13927;SDS011;7036;50.834;4.718;2023-06-24T17:49:44;3.87;;;2.77;;
13927;SDS011;7036;50.834;4.718;2023-06-24T17:52:11;7.27;;;2.50;;
13927;SDS011;7036;50.834;4.718;2023-06-24T17:54:38;3.83;;;2.27;;
13927;SDS011;7036;50.834;4.718;2023-06-24T17:57:06;3.03;;;2.57;;
13927;SDS011;7036;50.834;4.718;2023-06-24T17:59:33;3.03;;;2.47;;
13927;SDS011;7036;50.834;4.718;2023-06-24T18:02:00;2.67;;;2.17;;
13927;SDS011;7036;50.834;4.718;2023-06-24T18:04:27;2.83;;;2.43;;
13927;SDS011;7036;50.834;4.718;2023-06-24T18:06:54;3.17;;;2.40;;
13927;SDS011;7036;50.834;4.718;2023-06-24T18:09:21;2.50;;;2.00;;
13927;SDS011;7036;50.834;4.718;2023-06-24T18:11:48;4.03;;;2.67;;
13927;SDS011;7036;50.834;4.718;2023-06-24T18:14:15;3.80;;;2.00;;
13927;SDS011;7036;50.834;4.718;2023-06-24T18:16:47;4.43;;;2.50;;
13927;SDS011;7036;50.834;4.718;2023-06-24T18:19:15;8.63;;;2.80;;
13927;SDS011;7036;50.834;4.718;2023-06-24T18:21:41;2.97;;;2.43;;
13927;SDS011;7036;50.834;4.718;2023-06-24T18:24:08;3.33;;;2.67;;
13927;SDS011;7036;50.834;4.718;2023-06-24T18:26:36;4.50;;;2.63;;
13927;SDS011;7036;50.834;4.718;2023-06-24T18:29:02;2.40;;;2.20;;
13927;SDS011;7036;50.834;4.718;2023-06-24T18:31:29;2.60;;;2.27;;
13927;SDS011;7036;50.834;4.718;2023-06-24T18:33:56;5.93;;;3.20;;
13927;SDS011;7036;50.834;4.718;2023-06-24T18:36:23;5.07;;;3.40;;
13927;SDS011;7036;50.834;4.718;2023-06-24T18:38:50;5.03;;;3.13;;
13927;SDS011;7036;50.834;4.718;2023-06-24T18:41:17;4.97;;;3.80;;
13927;SDS011;7036;50.834;4.718;2023-06-24T18:43:44;4.03;;;3.30;;
13927;SDS011;7036;50.834;4.718;2023-06-24T18:46:11;3.90;;;3.50;;
13927;SDS011;7036;50.834;4.718;2023-06-24T18:48:37;4.53;;;3.83;;
13927;SDS011;7036;50.834;4.718;2023-06-24T18:51:04;5.50;;;3.60;;
13927;SDS011;7036;50.834;4.718;2023-06-24T18:53:31;5.77;;;3.63;;
13927;SDS011;7036;50.834;4.718;2023-06-24T18:55:58;3.53;;;2.97;;
13927;SDS011;7036;50.834;4.718;2023-06-24T18:58:25;5.33;;;3.53;;
13927;SDS011;7036;50.834;4.718;2023-06-24T19:00:52;5.30;;;3.03;;
13927;SDS011;7036;50.834;4.718;2023-06-24T19:03:19;5.23;;;3.47;;
13927;SDS011;7036;50.834;4.718;2023-06-24T19:05:46;9.43;;;3.20;;
13927;SDS011;7036;50.834;4.718;2023-06-24T19:08:13;8.27;;;3.07;;
13927;SDS011;7036;50.834;4.718;2023-06-24T19:10:40;7.17;;;3.37;;
13927;SDS011;7036;50.834;4.718;2023-06-24T19:13:07;7.23;;;2.77;;
13927;SDS011;7036;50.834;4.718;2023-06-24T19:15:34;4.47;;;3.13;;
13927;SDS011;7036;50.834;4.718;2023-06-24T19:18:00;8.40;;;2.90;;
13927;SDS011;7036;50.834;4.718;2023-06-24T19:20:27;4.93;;;2.40;;
13927;SDS011;7036;50.834;4.718;2023-06-24T19:22:54;9.33;;;3.33;;
13927;SDS011;7036;50.834;4.718;2023-06-24T19:25:22;6.73;;;2.60;;
13927;SDS011;7036;50.834;4.718;2023-06-24T19:27:49;4.13;;;2.53;;
13927;SDS011;7036;50.834;4.718;2023-06-24T19:30:15;7.23;;;2.60;;
13927;SDS011;7036;50.834;4.718;2023-06-24T19:32:42;5.90;;;2.83;;
13927;SDS011;7036;50.834;4.718;2023-06-24T19:35:09;5.20;;;2.57;;
13927;SDS011;7036;50.834;4.718;2023-06-24T19:37:36;4.90;;;3.27;;
13927;SDS011;7036;50.834;4.718;2023-06-24T19:40:03;7.20;;;3.47;;
13927;SDS011;7036;50.834;4.718;2023-06-24T19:42:30;5.07;;;2.93;;
13927;SDS011;7036;50.834;4.718;2023-06-24T19:44:57;3.53;;;2.70;;
13927;SDS011;7036;50.834;4.718;2023-06-24T19:47:24;9.37;;;3.40;;
13927;SDS011;7036;50.834;4.718;2023-06-24T19:49:52;9.37;;;3.27;;
13927;SDS011;7036;50.834;4.718;2023-06-24T19:52:18;7.60;;;3.10;;
13927;SDS011;7036;50.834;4.718;2023-06-24T19:54:46;6.63;;;3.33;;
13927;SDS011;7036;50.834;4.718;2023-06-24T19:57:16;9.60;;;2.83;;
13927;SDS011;7036;50.834;4.718;2023-06-24T19:59:42;5.30;;;3.10;;
13927;SDS011;7036;50.834;4.718;2023-06-24T20:02:09;6.90;;;3.07;;
13927;SDS011;7036;50.834;4.718;2023-06-24T20:04:36;7.17;;;3.13;;
13927;SDS011;7036;50.834;4.718;2023-06-24T20:07:04;5.87;;;2.60;;
13927;SDS011;7036;50.834;4.718;2023-06-24T20:09:33;10.00;;;3.73;;
13927;SDS011;7036;50.834;4.718;2023-06-24T20:11:58;15.73;;;3.90;;
13927;SDS011;7036;50.834;4.718;2023-06-24T20:14:25;8.40;;;3.30;;
13927;SDS011;7036;50.834;4.718;2023-06-24T20:16:52;8.30;;;3.83;;
13927;SDS011;7036;50.834;4.718;2023-06-24T20:19:19;10.83;;;3.10;;
13927;SDS011;7036;50.834;4.718;2023-06-24T20:21:46;6.10;;;3.60;;
13927;SDS011;7036;50.834;4.718;2023-06-24T20:24:12;8.50;;;3.10;;
13927;SDS011;7036;50.834;4.718;2023-06-24T20:26:40;5.93;;;2.70;;
13927;SDS011;7036;50.834;4.718;2023-06-24T20:29:06;6.53;;;3.47;;
13927;SDS011;7036;50.834;4.718;2023-06-24T20:31:33;8.63;;;3.20;;
13927;SDS011;7036;50.834;4.718;2023-06-24T20:34:00;7.23;;;3.13;;
13927;SDS011;7036;50.834;4.718;2023-06-24T20:36:27;7.60;;;3.07;;
13927;SDS011;7036;50.834;4.718;2023-06-24T20:38:54;6.47;;;3.43;;
13927;SDS011;7036;50.834;4.718;2023-06-24T20:41:21;5.93;;;3.37;;
13927;SDS011;7036;50.834;4.718;2023-06-24T20:43:48;4.23;;;2.90;;
13927;SDS011;7036;50.834;4.718;2023-06-24T20:46:17;9.77;;;3.07;;